PMDY METAR and TAF weather

Enter ICAO airport designator
Station Type Date Time Source
PMDY METAR 2020/11/25 22:28 UTC NOAA

PMDY 252228Z AUTO 05008KT 6SM HZ SCT014 24/21 A3029 RMK AO2


Station Type Date Time Source
PMDY Decoded METAR 2020/11/25 22:28 UTC NOAA

Sand Island, Henderson Field Airport, HI, United States (PMDY) 28-13N 177-22W 6M
Nov 25, 2020 - 05:28 PM EST / 2020.11.25 2228 UTC
Wind: from the NE (050 degrees) at 9 MPH (8 KT):0
Visibility: 6 mile(s):0
Sky conditions: partly cloudy
Weather: haze
Temperature: 75 F (24 C)
Dew Point: 69 F (21 C)
Relative Humidity: 83%
Pressure (altimeter): 30.29 in. Hg (1025 hPa)
ob: PMDY 252228Z AUTO 05008KT 6SM HZ SCT014 24/21 A3029 RMK AO2
cycle: 22

Station Type Date Time Source
PMDY TAF 2020/11/25 22:03 UTC NOAA

TAF
AMD PMDY 252201Z 2522/2618 04004KT P6SM SCT015 SCT030
TEMPO 2522/2524 BKN012 BKN025
FM260600 07010KT P6SM SCT015 OVC030

Example: see airport list